Madrid Aeropuerto

latitud = 40° 28' 00''N | longitud = 003° 33' 20''W
667 metros sobre el nivel del mar |

Fecha, hora, temperatura, viento dirección y velocidad, humedad y presión.

  • 22-09-2018 23:00:00 | 24.60°C | Norte |5.00 km/h | 40.00% | 955.70 hPa
  • 22-09-2018 22:00:00 | 27.00°C | Calma |0.00 km/h | 33.00% | 955.20 hPa
  • 22-09-2018 21:00:00 | 30.10°C | Sur |7.00 km/h | 27.00% | 954.70 hPa
  • 22-09-2018 20:00:00 | 31.40°C | Sudoeste |7.00 km/h | 25.00% | 954.20 hPa
  • 22-09-2018 19:00:00 | 32.50°C | Sur |8.00 km/h | 24.00% | 954.10 hPa
  • 22-09-2018 18:00:00 | 33.10°C | Sudoeste |9.00 km/h | 23.00% | 954.10 hPa
  • 22-09-2018 17:00:00 | 33.20°C | Sudoeste |11.00 km/h | 24.00% | 954.30 hPa
  • 22-09-2018 16:00:00 | 32.80°C | Sur |12.00 km/h | 25.00% | 954.70 hPa
  • 22-09-2018 15:00:00 | 32.30°C | Sudoeste |13.00 km/h | 27.00% | 955.20 hPa
  • 22-09-2018 14:00:00 | 30.50°C | Sur |6.00 km/h | 32.00% | 956.00 hPa
  • 22-09-2018 13:00:00 | 28.30°C | Sur |7.00 km/h | 37.00% | 956.50 hPa
  • 22-09-2018 12:00:00 | 26.60°C | Sur |7.00 km/h | 41.00% | 956.70 hPa
  • 22-09-2018 11:00:00 | 23.40°C | Norte |3.00 km/h | 48.00% | 956.40 hPa
  • 22-09-2018 10:00:00 | 20.20°C | Norte |3.00 km/h | 57.00% | 956.20 hPa
  • 22-09-2018 09:00:00 | 16.80°C | Norte |7.00 km/h | 69.00% | 955.90 hPa
  • 22-09-2018 08:00:00 | 16.60°C | Norte |5.00 km/h | 67.00% | 955.40 hPa
  • 22-09-2018 07:00:00 | 16.70°C | Norte |7.00 km/h | 67.00% | 955.20 hPa
  • 22-09-2018 06:00:00 | 17.50°C | Noroeste |5.00 km/h | 63.00% | 954.70 hPa
  • 22-09-2018 05:00:00 | 19.10°C | Noroeste |11.00 km/h | 58.00% | 954.40 hPa
  • 22-09-2018 04:00:00 | 19.70°C | Norte |13.00 km/h | 55.00% | 954.50 hPa
  • 22-09-2018 03:00:00 | 21.10°C | Norte |14.00 km/h | 51.00% | 954.30 hPa
  • 22-09-2018 02:00:00 | 22.20°C | Norte |6.00 km/h | 46.00% | 954.30 hPa
  • 22-09-2018 01:00:00 | 23.70°C | Nordeste |8.00 km/h | 41.00% | 953.90 hPa
  • 22-09-2018 00:00:00 | 24.40°C | Norte |6.00 km/h | 40.00% | 953.70 hPa
    • Datos gráficos mensuales en Madrid: